createdAt,value
2023-05-09T00:00:38.354Z,15.00
2023-05-09T00:03:23.306Z,15.10
2023-05-09T00:06:09.575Z,15.00
2023-05-09T00:08:55.784Z,14.90
2023-05-09T00:11:41.241Z,14.80
2023-05-09T00:14:27.383Z,14.90
2023-05-09T00:17:14.546Z,14.90
2023-05-09T00:20:01.570Z,14.90
2023-05-09T00:22:46.954Z,14.80
2023-05-09T00:25:32.751Z,14.80
2023-05-09T00:28:17.994Z,14.80
2023-05-09T00:31:03.745Z,14.80
2023-05-09T00:33:49.041Z,14.80
2023-05-09T00:36:34.323Z,14.80
2023-05-09T00:39:19.666Z,14.70
2023-05-09T00:42:05.220Z,14.60
2023-05-09T00:44:50.597Z,14.60
2023-05-09T00:47:36.245Z,14.60
2023-05-09T00:50:21.948Z,14.60
2023-05-09T00:53:08.211Z,14.50
2023-05-09T00:55:56.581Z,14.50
2023-05-09T00:58:41.882Z,14.50
2023-05-09T01:01:27.363Z,14.50
2023-05-09T01:04:14.017Z,14.40
2023-05-09T01:07:18.977Z,14.30
2023-05-09T01:10:23.117Z,14.30
2023-05-09T01:13:30.595Z,14.40
2023-05-09T01:16:55.028Z,14.30
2023-05-09T01:19:46.319Z,14.30
2023-05-09T01:22:35.923Z,14.30
2023-05-09T01:25:26.765Z,14.30
2023-05-09T01:28:36.520Z,14.20
2023-05-09T01:31:22.811Z,14.10
2023-05-09T01:34:11.199Z,14.10
2023-05-09T01:36:59.771Z,14.10
2023-05-09T01:39:49.834Z,14.10
2023-05-09T01:42:42.478Z,14.10
2023-05-09T01:45:29.201Z,14.10
2023-05-09T01:48:14.774Z,14.20
2023-05-09T01:51:01.549Z,14.10
2023-05-09T01:53:49.712Z,14.20
2023-05-09T01:56:36.539Z,14.20
2023-05-09T01:59:22.813Z,14.10
2023-05-09T02:02:08.282Z,14.00
2023-05-09T02:04:56.161Z,14.00
2023-05-09T02:07:42.817Z,13.90
2023-05-09T02:10:28.715Z,14.00
2023-05-09T02:13:14.118Z,14.00
2023-05-09T02:16:00.876Z,13.90
2023-05-09T02:18:47.052Z,13.90
2023-05-09T02:21:32.657Z,13.80
2023-05-09T02:24:17.969Z,13.70
2023-05-09T02:27:05.285Z,13.60
2023-05-09T02:29:54.938Z,13.60
2023-05-09T02:32:43.269Z,13.60
2023-05-09T02:35:29.205Z,13.60
2023-05-09T02:38:15.560Z,13.60
2023-05-09T02:41:00.579Z,13.70
2023-05-09T02:43:46.054Z,13.70
2023-05-09T02:46:31.883Z,13.60
2023-05-09T02:49:31.338Z,13.60
2023-05-09T02:52:17.802Z,13.60
2023-05-09T02:55:03.834Z,13.50
2023-05-09T02:57:51.963Z,13.40
2023-05-09T03:00:41.789Z,13.30
2023-05-09T03:03:27.225Z,13.30
2023-05-09T03:06:12.465Z,13.20
2023-05-09T03:08:57.917Z,13.20
2023-05-09T03:11:43.394Z,13.30
2023-05-09T03:14:28.489Z,13.30
2023-05-09T03:17:17.305Z,13.20
2023-05-09T03:20:05.486Z,13.20
2023-05-09T03:22:50.808Z,13.20
2023-05-09T03:25:36.358Z,13.10
2023-05-09T03:28:21.573Z,13.10
2023-05-09T03:31:06.993Z,13.20
2023-05-09T03:33:52.245Z,13.10
2023-05-09T03:36:37.741Z,13.20
2023-05-09T03:39:23.145Z,13.00
2023-05-09T03:42:08.492Z,13.00
2023-05-09T03:44:54.914Z,13.10
2023-05-09T03:47:40.060Z,13.00
2023-05-09T03:50:25.548Z,13.10
2023-05-09T03:53:11.046Z,13.10
2023-05-09T03:55:56.344Z,13.10
2023-05-09T03:58:41.828Z,13.00
2023-05-09T04:01:27.453Z,13.00
2023-05-09T04:04:13.091Z,13.00
2023-05-09T04:06:58.548Z,13.00
2023-05-09T04:09:43.871Z,13.00
2023-05-09T04:12:29.328Z,13.00
2023-05-09T04:15:14.938Z,13.00
2023-05-09T04:18:00.757Z,12.90
2023-05-09T04:20:46.348Z,12.90
2023-05-09T04:23:31.458Z,12.90
2023-05-09T04:26:17.967Z,12.90
2023-05-09T04:29:04.010Z,12.90
2023-05-09T04:31:49.598Z,12.90
2023-05-09T04:34:34.865Z,12.90
2023-05-09T04:37:20.234Z,12.90
2023-05-09T04:40:07.806Z,12.90
2023-05-09T04:42:53.413Z,12.90
2023-05-09T04:45:38.800Z,12.90
2023-05-09T04:48:24.308Z,12.90
2023-05-09T04:51:09.692Z,12.90
2023-05-09T04:53:55.421Z,12.90
2023-05-09T04:56:40.578Z,13.00
2023-05-09T04:59:26.065Z,12.90
2023-05-09T05:02:11.493Z,13.20
2023-05-09T05:05:10.144Z,13.30
2023-05-09T05:07:57.291Z,13.30
2023-05-09T05:10:42.700Z,13.50
2023-05-09T05:13:28.079Z,13.50
2023-05-09T05:16:13.646Z,13.60
2023-05-09T05:18:59.036Z,13.60
2023-05-09T05:21:44.582Z,13.60
2023-05-09T05:24:30.062Z,13.70
2023-05-09T05:27:15.339Z,13.70
2023-05-09T05:30:00.792Z,13.70
2023-05-09T05:32:46.436Z,13.80
2023-05-09T05:35:31.658Z,13.80
2023-05-09T05:38:17.010Z,13.80
2023-05-09T05:41:02.478Z,13.80
2023-05-09T05:43:47.828Z,13.80
2023-05-09T05:46:33.176Z,13.90
2023-05-09T05:49:18.604Z,13.90
2023-05-09T05:52:04.248Z,13.90
2023-05-09T05:54:49.780Z,14.00
2023-05-09T05:57:35.395Z,13.90
2023-05-09T06:00:20.828Z,13.80
2023-05-09T06:03:06.331Z,13.80
2023-05-09T06:05:51.771Z,13.80
2023-05-09T06:08:37.310Z,13.80
2023-05-09T06:11:23.431Z,13.70
2023-05-09T06:14:08.629Z,13.80
2023-05-09T06:16:54.238Z,13.80
2023-05-09T06:19:39.396Z,13.90
2023-05-09T06:22:24.782Z,13.90
2023-05-09T06:25:10.728Z,14.00
2023-05-09T06:27:56.239Z,14.10
2023-05-09T06:30:41.768Z,14.20
2023-05-09T06:33:27.214Z,14.20
2023-05-09T06:36:12.818Z,14.20
2023-05-09T06:38:58.394Z,14.20
2023-05-09T06:41:43.736Z,14.20
2023-05-09T06:44:29.068Z,14.20
2023-05-09T06:47:14.610Z,14.20
2023-05-09T06:50:00.034Z,14.30
2023-05-09T06:52:45.416Z,14.40
2023-05-09T06:55:30.975Z,14.20
2023-05-09T06:58:15.971Z,14.10
2023-05-09T07:01:01.601Z,14.10
2023-05-09T07:03:47.556Z,14.10
2023-05-09T07:06:32.918Z,14.10
2023-05-09T07:09:20.485Z,14.20
2023-05-09T07:12:08.399Z,14.20
2023-05-09T07:14:53.830Z,14.30
2023-05-09T07:17:39.787Z,14.40
2023-05-09T07:20:25.508Z,14.40
2023-05-09T07:23:10.569Z,14.40
2023-05-09T07:25:57.674Z,14.50
2023-05-09T07:28:42.878Z,14.70
2023-05-09T07:31:28.389Z,14.90
2023-05-09T07:34:15.792Z,14.90
2023-05-09T07:37:01.225Z,14.90
2023-05-09T07:39:49.472Z,15.00
2023-05-09T07:42:34.551Z,15.10
2023-05-09T07:45:21.987Z,15.10
2023-05-09T07:48:09.452Z,15.20
2023-05-09T07:50:54.830Z,15.40
2023-05-09T07:53:40.175Z,15.40
2023-05-09T07:56:26.400Z,15.60
2023-05-09T07:59:12.286Z,15.90
2023-05-09T08:01:57.468Z,15.90
2023-05-09T08:04:42.838Z,15.90
2023-05-09T08:07:27.974Z,15.90
2023-05-09T08:10:13.478Z,16.00
2023-05-09T08:12:58.761Z,16.20
2023-05-09T08:15:44.141Z,16.20
2023-05-09T08:18:29.553Z,16.30
2023-05-09T08:21:14.973Z,16.30
2023-05-09T08:24:01.760Z,16.60
2023-05-09T08:26:47.062Z,16.70
2023-05-09T08:29:32.238Z,16.80
2023-05-09T08:32:19.841Z,17.00
2023-05-09T08:35:06.035Z,17.10
2023-05-09T08:37:51.811Z,17.20
2023-05-09T08:40:37.936Z,17.40
2023-05-09T08:43:24.371Z,17.40
2023-05-09T08:46:11.567Z,17.40
2023-05-09T08:48:57.956Z,17.40
2023-05-09T08:51:43.901Z,17.70
2023-05-09T08:54:30.028Z,17.80
2023-05-09T08:57:15.685Z,18.10
2023-05-09T09:00:01.657Z,18.20
2023-05-09T09:02:47.359Z,18.30
2023-05-09T09:05:41.771Z,18.40
2023-05-09T09:08:27.934Z,18.50
2023-05-09T09:11:17.228Z,18.50
2023-05-09T09:14:10.812Z,18.70
2023-05-09T09:16:58.397Z,18.90
2023-05-09T09:19:45.033Z,19.10
2023-05-09T09:22:34.122Z,18.90
2023-05-09T09:25:19.417Z,18.80
2023-05-09T09:28:05.451Z,18.80
2023-05-09T09:30:50.507Z,19.00
2023-05-09T09:33:36.116Z,19.10
2023-05-09T09:36:29.104Z,19.10
2023-05-09T09:39:14.820Z,19.00
2023-05-09T09:42:11.491Z,18.90
2023-05-09T09:45:02.429Z,18.90
2023-05-09T09:47:49.826Z,18.80
2023-05-09T09:50:35.065Z,19.10
2023-05-09T09:53:20.713Z,19.40
2023-05-09T09:56:06.410Z,19.40
2023-05-09T09:59:12.496Z,19.80
2023-05-09T10:01:58.973Z,19.80
2023-05-09T10:04:44.139Z,19.80
2023-05-09T10:07:35.306Z,19.80
2023-05-09T10:10:21.681Z,19.80
2023-05-09T10:13:11.980Z,20.00
2023-05-09T10:15:58.851Z,20.00
2023-05-09T10:18:44.626Z,20.50
2023-05-09T10:21:30.494Z,20.40
2023-05-09T10:24:17.440Z,20.70
2023-05-09T10:27:04.632Z,20.60
2023-05-09T10:29:53.368Z,20.40
2023-05-09T10:32:53.168Z,20.60
2023-05-09T10:35:46.916Z,20.70
2023-05-09T10:38:32.417Z,20.90
2023-05-09T10:41:18.918Z,21.10
2023-05-09T10:44:04.511Z,21.20
2023-05-09T10:46:50.072Z,21.30
2023-05-09T10:49:37.100Z,21.20
2023-05-09T10:52:22.908Z,21.40
2023-05-09T10:55:09.439Z,21.60
2023-05-09T10:57:55.038Z,22.10
2023-05-09T11:00:43.346Z,22.50
2023-05-09T11:03:49.216Z,22.70
2023-05-09T11:06:50.697Z,22.70
2023-05-09T11:09:38.892Z,22.60
2023-05-09T11:12:25.350Z,22.90
2023-05-09T11:15:11.245Z,23.20
2023-05-09T11:18:12.310Z,23.60
2023-05-09T11:20:57.662Z,23.70
2023-05-09T11:23:43.008Z,23.70
2023-05-09T11:26:30.276Z,23.80
2023-05-09T11:29:16.105Z,24.10
2023-05-09T11:32:06.890Z,24.40
2023-05-09T11:34:52.182Z,24.70
2023-05-09T11:37:48.868Z,24.80
2023-05-09T11:40:34.813Z,24.10
2023-05-09T11:43:20.271Z,24.20
2023-05-09T11:46:06.239Z,24.00
2023-05-09T11:48:51.474Z,23.90
2023-05-09T11:51:38.133Z,24.20
2023-05-09T11:54:24.348Z,24.50
2023-05-09T11:57:09.814Z,25.00
2023-05-09T11:59:55.637Z,25.30
2023-05-09T12:02:43.532Z,25.00
2023-05-09T12:05:28.881Z,25.00
2023-05-09T12:08:15.471Z,25.10
2023-05-09T12:11:10.523Z,25.20
2023-05-09T12:13:55.949Z,25.00
2023-05-09T12:16:47.504Z,25.00
2023-05-09T12:19:32.850Z,25.30
2023-05-09T12:22:18.392Z,25.70
2023-05-09T12:25:07.461Z,25.70
2023-05-09T12:27:54.622Z,25.60
2023-05-09T12:30:40.830Z,25.30
2023-05-09T12:33:26.421Z,25.30
2023-05-09T12:36:13.101Z,25.40
2023-05-09T12:38:58.593Z,25.60
2023-05-09T12:42:01.203Z,25.60
2023-05-09T12:44:50.663Z,25.40
2023-05-09T12:47:37.231Z,25.10
2023-05-09T12:50:22.673Z,25.30
2023-05-09T12:53:08.085Z,25.60
2023-05-09T12:56:20.508Z,25.30
2023-05-09T12:59:10.892Z,25.30
2023-05-09T13:01:57.900Z,25.10
2023-05-09T13:04:43.012Z,24.70
2023-05-09T13:07:28.293Z,25.10
2023-05-09T13:10:23.788Z,25.50
2023-05-09T13:13:16.098Z,25.90
2023-05-09T13:16:03.625Z,26.20
2023-05-09T13:18:48.820Z,26.60
2023-05-09T13:21:35.012Z,26.60
2023-05-09T13:24:20.177Z,26.50
2023-05-09T13:27:05.693Z,26.40
2023-05-09T13:29:51.177Z,26.20
2023-05-09T13:32:36.957Z,26.00
2023-05-09T13:35:22.512Z,25.90
2023-05-09T13:38:07.856Z,26.10
2023-05-09T13:40:53.086Z,25.70
2023-05-09T13:43:39.892Z,26.00
2023-05-09T13:46:25.060Z,26.30
2023-05-09T13:49:10.394Z,26.30
2023-05-09T13:51:55.914Z,26.50
2023-05-09T13:54:41.367Z,26.60
2023-05-09T13:57:27.707Z,26.70
2023-05-09T14:00:15.683Z,26.30
2023-05-09T14:03:02.886Z,26.30
2023-05-09T14:05:48.489Z,26.00
2023-05-09T14:08:33.797Z,26.20
2023-05-09T14:11:19.182Z,26.50
2023-05-09T14:14:04.614Z,26.80
2023-05-09T14:16:50.793Z,26.80
2023-05-09T14:19:36.261Z,26.60
2023-05-09T14:22:21.716Z,26.40
2023-05-09T14:25:07.689Z,26.30
2023-05-09T14:27:53.641Z,26.20
2023-05-09T14:30:39.083Z,26.00
2023-05-09T14:33:25.647Z,25.90
2023-05-09T14:36:11.377Z,25.90
2023-05-09T14:38:56.505Z,26.00
2023-05-09T14:41:41.981Z,25.70
2023-05-09T14:44:27.463Z,25.80
2023-05-09T14:47:13.023Z,26.00
2023-05-09T14:49:58.672Z,26.30
2023-05-09T14:52:44.292Z,26.50
2023-05-09T14:55:31.095Z,26.70
2023-05-09T14:58:17.921Z,26.20
2023-05-09T15:01:04.263Z,26.10
2023-05-09T15:03:49.612Z,25.80
2023-05-09T15:06:35.413Z,25.80
2023-05-09T15:09:21.479Z,25.40
2023-05-09T15:12:07.077Z,25.30
2023-05-09T15:14:54.411Z,25.20
2023-05-09T15:17:39.777Z,24.90
2023-05-09T15:20:25.319Z,25.00
2023-05-09T15:23:12.431Z,24.80
2023-05-09T15:25:57.980Z,24.50
2023-05-09T15:28:45.352Z,24.10
2023-05-09T15:31:32.932Z,24.10
2023-05-09T15:34:18.173Z,24.30
2023-05-09T15:37:03.646Z,24.40
2023-05-09T15:39:49.112Z,24.70
2023-05-09T15:42:34.961Z,24.60
2023-05-09T15:45:20.430Z,24.30
2023-05-09T15:48:05.918Z,24.40
2023-05-09T15:50:53.061Z,24.20
2023-05-09T15:53:38.125Z,24.40
2023-05-09T15:56:23.510Z,24.50
2023-05-09T15:59:09.874Z,24.40
2023-05-09T16:01:55.982Z,24.20
2023-05-09T16:04:42.473Z,24.20
2023-05-09T16:07:27.744Z,24.50
2023-05-09T16:10:14.363Z,24.40
2023-05-09T16:12:59.827Z,24.60
2023-05-09T16:15:47.714Z,24.60
2023-05-09T16:18:33.021Z,24.60
2023-05-09T16:21:19.090Z,24.30
2023-05-09T16:24:05.004Z,24.30
2023-05-09T16:26:50.057Z,24.10
2023-05-09T16:29:35.535Z,24.10
2023-05-09T16:32:21.182Z,24.10
2023-05-09T16:35:07.600Z,24.10
2023-05-09T16:37:52.833Z,23.90
2023-05-09T16:40:38.330Z,23.80
2023-05-09T16:43:23.749Z,23.60
2023-05-09T16:46:09.328Z,23.70
2023-05-09T16:48:55.127Z,23.80
2023-05-09T16:51:40.109Z,23.70
2023-05-09T16:54:25.625Z,23.60
2023-05-09T16:57:10.950Z,23.50
2023-05-09T16:59:56.302Z,23.50
2023-05-09T17:02:41.561Z,23.50
2023-05-09T17:05:27.007Z,23.50
2023-05-09T17:08:12.390Z,23.10
2023-05-09T17:10:57.768Z,22.80
2023-05-09T17:13:43.988Z,22.70
2023-05-09T17:16:29.479Z,22.70
2023-05-09T17:19:16.042Z,22.80
2023-05-09T17:22:04.309Z,22.90
2023-05-09T17:24:49.519Z,23.00
2023-05-09T17:27:34.849Z,22.90
2023-05-09T17:30:22.806Z,22.70
2023-05-09T17:33:08.429Z,22.70
2023-05-09T17:35:53.738Z,22.70
2023-05-09T17:38:39.456Z,22.60
2023-05-09T17:41:24.617Z,22.50
2023-05-09T17:44:09.930Z,22.40
2023-05-09T17:46:55.358Z,22.20
2023-05-09T17:49:40.544Z,22.10
2023-05-09T17:52:26.032Z,22.00
2023-05-09T17:55:11.528Z,21.80
2023-05-09T17:57:56.850Z,21.80
2023-05-09T18:00:42.240Z,21.90
2023-05-09T18:03:28.823Z,21.80
2023-05-09T18:06:14.550Z,21.70
2023-05-09T18:08:59.905Z,21.40
2023-05-09T18:11:45.371Z,21.20
2023-05-09T18:14:30.597Z,21.30
2023-05-09T18:17:16.378Z,21.20
2023-05-09T18:20:01.943Z,20.90
2023-05-09T18:22:47.464Z,20.80
2023-05-09T18:25:34.733Z,20.80
2023-05-09T18:28:24.607Z,20.70
2023-05-09T18:31:11.661Z,20.70
2023-05-09T18:33:56.996Z,20.70
2023-05-09T18:36:42.380Z,20.60
2023-05-09T18:39:27.737Z,20.50
2023-05-09T18:42:15.921Z,20.30
2023-05-09T18:45:04.220Z,20.30
2023-05-09T18:47:49.277Z,20.30
2023-05-09T18:50:34.816Z,20.20
2023-05-09T18:53:20.644Z,20.10
2023-05-09T18:56:05.967Z,20.00
2023-05-09T18:58:51.528Z,19.90
2023-05-09T19:01:37.867Z,19.80
2023-05-09T19:04:23.140Z,19.60
2023-05-09T19:07:09.969Z,19.60
2023-05-09T19:09:55.290Z,19.60
2023-05-09T19:12:40.918Z,19.50
2023-05-09T19:15:26.154Z,19.40
2023-05-09T19:18:12.671Z,19.50
2023-05-09T19:20:58.180Z,19.30
2023-05-09T19:23:47.567Z,19.30
2023-05-09T19:26:32.962Z,19.30
2023-05-09T19:29:18.326Z,19.30
2023-05-09T19:32:04.915Z,19.10
2023-05-09T19:34:50.148Z,19.00
2023-05-09T19:37:36.338Z,19.00
2023-05-09T19:40:21.609Z,19.00
2023-05-09T19:43:06.808Z,18.90
2023-05-09T19:45:52.198Z,18.80
2023-05-09T19:48:37.701Z,18.70
2023-05-09T19:51:22.600Z,18.70
2023-05-09T19:54:08.069Z,18.80
2023-05-09T19:56:53.501Z,18.80
2023-05-09T19:59:39.160Z,18.80
2023-05-09T20:02:24.432Z,18.80
2023-05-09T20:05:09.860Z,18.90
2023-05-09T20:07:55.466Z,18.80
2023-05-09T20:10:40.810Z,18.80
2023-05-09T20:13:27.042Z,18.70
2023-05-09T20:16:12.878Z,18.50
2023-05-09T20:18:58.558Z,18.50
2023-05-09T20:21:44.073Z,18.60
2023-05-09T20:24:31.366Z,18.40
2023-05-09T20:27:16.376Z,18.40
2023-05-09T20:30:03.701Z,18.30
2023-05-09T20:32:49.028Z,18.40
2023-05-09T20:35:34.952Z,18.50
2023-05-09T20:38:20.389Z,18.30
2023-05-09T20:41:05.887Z,18.30
2023-05-09T20:43:51.605Z,18.20
2023-05-09T20:46:37.001Z,18.20
2023-05-09T20:49:23.075Z,17.90
2023-05-09T20:52:08.362Z,18.00
2023-05-09T20:54:53.942Z,17.90
2023-05-09T20:57:39.523Z,18.00
2023-05-09T21:00:24.982Z,18.20
2023-05-09T21:03:10.653Z,18.30
2023-05-09T21:05:56.030Z,18.60
2023-05-09T21:08:42.095Z,18.50
2023-05-09T21:11:27.546Z,18.60
2023-05-09T21:14:12.866Z,18.70
2023-05-09T21:16:58.519Z,18.60
2023-05-09T21:19:43.855Z,18.70
2023-05-09T21:22:29.087Z,18.70
2023-05-09T21:25:15.649Z,18.60
2023-05-09T21:28:01.015Z,18.60
2023-05-09T21:30:53.326Z,18.60
2023-05-09T21:33:39.050Z,18.50
2023-05-09T21:36:24.751Z,18.50
2023-05-09T21:39:10.475Z,18.40
2023-05-09T21:41:55.654Z,18.30
2023-05-09T21:44:41.101Z,18.40
2023-05-09T21:47:28.940Z,18.30
2023-05-09T21:50:14.723Z,18.40
2023-05-09T21:53:00.449Z,18.30
2023-05-09T21:55:45.535Z,18.30
2023-05-09T21:58:30.867Z,18.30
2023-05-09T22:01:18.343Z,18.20
2023-05-09T22:04:04.334Z,18.10
2023-05-09T22:06:50.056Z,18.10
2023-05-09T22:09:35.504Z,17.90
2023-05-09T22:12:21.395Z,17.80
2023-05-09T22:15:07.449Z,17.80
2023-05-09T22:17:52.659Z,17.90
2023-05-09T22:20:38.053Z,17.80
2023-05-09T22:23:23.520Z,17.80
2023-05-09T22:26:08.936Z,17.70
2023-05-09T22:28:55.528Z,17.60
2023-05-09T22:31:41.029Z,17.60
2023-05-09T22:34:26.211Z,17.60
2023-05-09T22:37:11.695Z,17.60
2023-05-09T22:39:57.134Z,17.80
2023-05-09T22:42:42.426Z,17.90
2023-05-09T22:45:27.987Z,17.90
2023-05-09T22:48:13.287Z,17.80
2023-05-09T22:50:58.684Z,17.80
2023-05-09T22:53:44.104Z,17.80
2023-05-09T22:56:29.418Z,17.60
2023-05-09T22:59:15.094Z,17.60
2023-05-09T23:02:00.482Z,17.70
2023-05-09T23:04:45.933Z,17.70
2023-05-09T23:07:31.148Z,17.60
2023-05-09T23:10:16.854Z,17.60
2023-05-09T23:13:02.596Z,17.70
2023-05-09T23:15:48.405Z,17.60
2023-05-09T23:18:33.916Z,17.60
2023-05-09T23:21:19.192Z,17.60
2023-05-09T23:24:04.613Z,17.60
2023-05-09T23:26:50.053Z,17.60
2023-05-09T23:29:35.234Z,17.60
2023-05-09T23:32:20.873Z,17.60
2023-05-09T23:35:06.861Z,17.50
2023-05-09T23:37:52.912Z,17.40
2023-05-09T23:40:38.438Z,17.40
2023-05-09T23:43:23.910Z,17.50
2023-05-09T23:46:09.131Z,17.50
2023-05-09T23:48:54.367Z,17.50
2023-05-09T23:51:39.617Z,17.40
2023-05-09T23:54:25.040Z,17.50
2023-05-09T23:57:10.371Z,17.50
2023-05-09T23:59:55.853Z,17.50
